Capitol Logistics 234




KMIA
Miami International Airport
Miami, Florida
KPHX
Phoenix Sky Harbor International Airport
Phoenix, Arizona

Route Details

Aircraft Information
Group: Boeing Common
Types: B752,B762,B763
Route Data
Distance: 1713nm
Duration: 5h 29m
Recm'd Route: WINCO2 WINCO CHRRI DOLIE Y280 LEV J86 ELP DRRVR PINNG1
Origin Wx: KMIA 160753Z 31003KT 10SM FEW035 25/22 A2990 RMK AO2 SLP126 T02500222 $
Dest. Wx: KPHX 160751Z 05008KT 10SM CLR 23/M07 A3004 RMK AO2 SLP156 T02281072
Notes:

Financial History
Total Freight: 484,827lbs
Average Load: 80,805lbs/flt
Fuel Used: 313,313lbs
Avg. Fuel Used: 52,219lbs/flt
Fuel Expense: $296,854
Avg. Fuel Expense: $49,476
Avg. Fuel Cost: $0.91/lbs
Total Gross Income: $725,930
Pilot Pay: $1,074
Total Expenses: $86,413
Total Revenue: $338,239
Average Revenue: $120,988.40